Time;durP1;ratioP1;P1;durP2;ratioP2;P2;SDS_P1;SDS_P2;PMS_P1;PMS_P2;Temp;Humidity;BMP_temperature;BMP_pressure;BME280_temperature;BME280_humidity;BME280_pressure;Samples;Min_cycle;Max_cycle;Signal;HPM_P1;HPM_P2
2022/11/27 00:04:05;;;;;;;;;;;7.70;99.90;;;;;;4964032;29;1608;-91
2022/11/27 00:06:40;;;;;;;;;;;7.60;99.90;;;;;;4961990;28;1586;-90
2022/11/27 00:09:14;;;;;;;;;;;7.60;99.90;;;;;;5001791;28;1532;-91
2022/11/27 00:11:53;;;;;;;;;;;7.50;99.90;;;;;;5000667;28;1564;-90
2022/11/27 00:14:29;;;;;;;;;;;7.40;99.90;;;;;;5001437;28;1729;-90
2022/11/27 00:17:05;;;;;;;;;;;7.10;99.90;;;;;;5008016;28;2001;-88
2022/11/27 00:22:32;;;;;;;;;;;7.20;99.90;;;;;;4998487;28;1556;-90
2022/11/27 00:25:04;;;;;;;;;;;7.10;99.90;;;;;;4998669;28;1656;-90
2022/11/27 00:27:35;;;;;;;;;;;7.10;99.90;;;;;;5002949;28;1304;-90
2022/11/27 00:30:16;;;;;;;;;;;7.30;99.90;;;;;;5002168;28;1647;-91
2022/11/27 00:33:03;;;;;;;;;;;6.70;99.90;;;;;;5007954;28;1029;-90
2022/11/27 00:35:41;;;;;;;;;;;6.90;99.90;;;;;;5018770;28;1573;-91
2022/11/27 00:38:19;;;;;;;;;;;6.80;99.90;;;;;;4998774;28;1959;-93
2022/11/27 00:40:55;;;;;;;;;;;6.80;99.90;;;;;;5004060;28;1730;-92
2022/11/27 00:43:41;;;;;;;;;;;6.80;99.90;;;;;;5003685;28;1734;-91
2022/11/27 00:46:16;;;;;;;;;;;6.80;99.90;;;;;;5019975;28;1612;-92
2022/11/27 00:51:49;;;;;;;;;;;6.60;99.90;;;;;;4963635;28;1590;-90
2022/11/27 00:57:12;;;;;;;;;;;6.60;99.90;;;;;;4938209;29;1980;-90
2022/11/27 00:59:41;;;;;;;;;;;6.70;99.90;;;;;;4943833;28;1566;-90
2022/11/27 01:02:14;;;;;;;;;;;6.50;99.90;;;;;;5002948;28;1535;-92
2022/11/27 01:04:49;;;;;;;;;;;6.50;99.90;;;;;;4997987;28;1682;-90
2022/11/27 01:07:26;;;;;;;;;;;6.60;99.90;;;;;;5013769;28;1040;-90
2022/11/27 01:09:58;;;;;;;;;;;6.60;99.90;;;;;;5020997;28;1677;-89
2022/11/27 01:15:28;;;;;;;;;;;6.70;99.90;;;;;;4974160;28;1656;-90
2022/11/27 01:17:59;;;;;;;;;;;7.00;99.90;;;;;;4972194;28;1910;-87
2022/11/27 01:20:28;;;;;;;;;;;6.70;99.90;;;;;;5015822;28;1021;-88
2022/11/27 01:22:56;;;;;;;;;;;6.80;99.90;;;;;;5019665;28;954;-89
2022/11/27 01:25:23;;;;;;;;;;;6.60;99.90;;;;;;5001523;28;1003;-89
2022/11/27 01:27:53;;;;;;;;;;;6.50;99.90;;;;;;5008243;28;1292;-89
2022/11/27 01:30:21;;;;;;;;;;;6.40;99.90;;;;;;4999619;28;994;-89
2022/11/27 01:32:49;;;;;;;;;;;6.40;99.90;;;;;;4999809;28;2102;-88
2022/11/27 01:35:16;;;;;;;;;;;6.40;99.90;;;;;;4997826;28;1097;-89
2022/11/27 01:37:45;;;;;;;;;;;6.50;99.90;;;;;;4998361;28;1915;-89
2022/11/27 01:40:13;;;;;;;;;;;6.10;99.90;;;;;;4996853;28;966;-86
2022/11/27 01:42:41;;;;;;;;;;;6.30;99.90;;;;;;4997435;28;970;-89
2022/11/27 01:45:09;;;;;;;;;;;6.10;99.90;;;;;;5000253;28;1664;-89
2022/11/27 01:47:39;;;;;;;;;;;6.10;99.90;;;;;;5005358;28;1573;-92
2022/11/27 01:50:10;;;;;;;;;;;6.10;99.90;;;;;;5007081;28;1566;-89
2022/11/27 01:52:39;;;;;;;;;;;6.10;99.90;;;;;;5005972;28;1524;-89
2022/11/27 01:55:12;;;;;;;;;;;6.00;99.90;;;;;;5004714;28;947;-89
2022/11/27 01:57:41;;;;;;;;;;;6.00;99.90;;;;;;5006286;28;1895;-89
2022/11/27 02:00:11;;;;;;;;;;;6.30;99.90;;;;;;5008086;28;1726;-89
2022/11/27 02:02:39;;;;;;;;;;;6.00;99.90;;;;;;4997543;28;1793;-89
2022/11/27 02:05:08;;;;;;;;;;;6.00;99.90;;;;;;5001282;28;967;-89
2022/11/27 02:07:36;;;;;;;;;;;5.90;99.90;;;;;;5000058;28;1568;-89
2022/11/27 02:10:04;;;;;;;;;;;5.90;99.90;;;;;;5000198;28;1593;-90
2022/11/27 02:12:39;;;;;;;;;;;5.90;99.90;;;;;;4999860;28;1518;-90
2022/11/27 02:17:51;;;;;;;;;;;5.80;99.90;;;;;;5335531;23;1942;-88
2022/11/27 02:20:27;;;;;;;;;;;5.80;99.90;;;;;;5008968;28;1501;-89
2022/11/27 02:23:06;;;;;;;;;;;6.00;99.90;;;;;;5026506;28;1127;-89
2022/11/27 02:25:37;;;;;;;;;;;5.80;99.90;;;;;;5006358;28;1526;-89
2022/11/27 02:28:17;;;;;;;;;;;6.00;99.90;;;;;;5003942;28;1580;-90
2022/11/27 02:30:50;;;;;;;;;;;5.70;99.90;;;;;;5006438;28;1564;-90
2022/11/27 02:33:19;;;;;;;;;;;5.70;99.90;;;;;;5009368;28;1746;-90
2022/11/27 02:35:49;;;;;;;;;;;5.70;99.90;;;;;;5010943;28;1497;-91
2022/11/27 02:38:20;;;;;;;;;;;5.60;99.90;;;;;;5008320;28;1895;-89
2022/11/27 02:40:52;;;;;;;;;;;5.60;99.90;;;;;;5006541;28;1104;-88
2022/11/27 02:43:22;;;;;;;;;;;5.50;99.90;;;;;;5013574;28;976;-89
2022/11/27 02:45:51;;;;;;;;;;;5.60;99.90;;;;;;5003381;28;1029;-91
2022/11/27 02:48:21;;;;;;;;;;;5.50;99.90;;;;;;5001981;28;1239;-89
2022/11/27 02:50:50;;;;;;;;;;;5.50;99.90;;;;;;5000668;28;1669;-90
2022/11/27 02:53:21;;;;;;;;;;;5.50;99.90;;;;;;5001490;28;1411;-87
2022/11/27 02:55:50;;;;;;;;;;;5.40;99.90;;;;;;5004303;28;1012;-87
2022/11/27 02:58:19;;;;;;;;;;;5.50;99.90;;;;;;5019085;28;1978;-88
2022/11/27 03:00:47;;;;;;;;;;;5.40;99.90;;;;;;5010582;28;1077;-90
2022/11/27 03:03:18;;;;;;;;;;;5.40;99.90;;;;;;5003313;28;1260;-89
2022/11/27 03:05:49;;;;;;;;;;;5.40;99.90;;;;;;5003921;28;1001;-88
2022/11/27 03:08:20;;;;;;;;;;;5.40;99.90;;;;;;5004339;28;1566;-88
2022/11/27 03:10:49;;;;;;;;;;;5.50;99.90;;;;;;5002459;28;1736;-88
2022/11/27 03:13:17;;;;;;;;;;;5.40;99.90;;;;;;5002827;28;1651;-88
2022/11/27 03:15:47;;;;;;;;;;;5.40;99.90;;;;;;5001211;28;1639;-89
2022/11/27 03:18:21;;;;;;;;;;;5.40;99.90;;;;;;5002145;28;1879;-89
2022/11/27 03:20:51;;;;;;;;;;;5.30;99.90;;;;;;5001541;28;1064;-89
2022/11/27 03:23:19;;;;;;;;;;;5.30;99.90;;;;;;5002138;28;1533;-90
2022/11/27 03:25:46;;;;;;;;;;;5.20;99.90;;;;;;5001958;28;1411;-89
2022/11/27 03:28:14;;;;;;;;;;;5.30;99.90;;;;;;5002416;28;1730;-88
2022/11/27 03:30:42;;;;;;;;;;;5.30;99.90;;;;;;5001177;28;1025;-88
2022/11/27 03:33:10;;;;;;;;;;;5.30;99.90;;;;;;5001985;28;971;-88
2022/11/27 03:35:39;;;;;;;;;;;5.20;99.90;;;;;;5000876;28;1286;-91
2022/11/27 03:38:07;;;;;;;;;;;5.50;99.90;;;;;;5000618;28;1707;-91
2022/11/27 03:40:41;;;;;;;;;;;5.10;99.90;;;;;;5009441;28;1978;-88
2022/11/27 03:43:12;;;;;;;;;;;5.10;99.90;;;;;;5011441;28;1565;-90
2022/11/27 03:45:46;;;;;;;;;;;5.20;99.90;;;;;;5003427;28;1116;-88
2022/11/27 03:48:21;;;;;;;;;;;5.10;99.90;;;;;;4998897;28;1602;-88
2022/11/27 03:50:58;;;;;;;;;;;5.30;99.90;;;;;;4998812;28;1014;-89
2022/11/27 03:53:31;;;;;;;;;;;5.00;99.90;;;;;;4998033;28;1662;-89
2022/11/27 03:56:01;;;;;;;;;;;5.00;99.90;;;;;;4998488;28;1647;-90
2022/11/27 03:58:37;;;;;;;;;;;4.90;99.90;;;;;;4998320;28;1446;-88
2022/11/27 04:01:07;;;;;;;;;;;4.90;99.90;;;;;;5000637;28;1551;-88
2022/11/27 04:03:35;;;;;;;;;;;5.00;99.90;;;;;;5019821;28;1037;-89
2022/11/27 04:06:05;;;;;;;;;;;4.90;99.90;;;;;;5003708;28;1022;-89
2022/11/27 04:08:32;;;;;;;;;;;5.20;99.90;;;;;;5003421;28;1672;-88
2022/11/27 04:11:00;;;;;;;;;;;4.90;99.90;;;;;;5004464;28;1725;-90
2022/11/27 04:13:28;;;;;;;;;;;4.90;99.90;;;;;;5009093;28;2471;-89
2022/11/27 04:15:56;;;;;;;;;;;5.00;99.90;;;;;;5018797;28;1608;-90
2022/11/27 04:18:23;;;;;;;;;;;4.90;99.90;;;;;;5010744;28;1729;-89
2022/11/27 04:20:51;;;;;;;;;;;4.80;99.90;;;;;;5002474;28;1977;-88
2022/11/27 04:23:20;;;;;;;;;;;4.80;99.90;;;;;;4999339;28;985;-90
2022/11/27 04:25:48;;;;;;;;;;;4.80;99.90;;;;;;4999330;28;1624;-89
2022/11/27 04:28:16;;;;;;;;;;;4.80;99.90;;;;;;4999627;28;1572;-89
2022/11/27 04:30:44;;;;;;;;;;;4.80;99.90;;;;;;4999521;28;1533;-90
2022/11/27 04:33:12;;;;;;;;;;;4.80;99.90;;;;;;4998973;28;1578;-89
2022/11/27 04:35:40;;;;;;;;;;;4.70;99.90;;;;;;5000113;28;1520;-88
2022/11/27 04:38:09;;;;;;;;;;;4.70;99.90;;;;;;5000942;28;1261;-88
2022/11/27 04:40:38;;;;;;;;;;;4.80;99.90;;;;;;4999851;28;1910;-86
2022/11/27 04:43:05;;;;;;;;;;;5.00;99.90;;;;;;4997855;28;1663;-89
2022/11/27 04:45:33;;;;;;;;;;;4.90;99.90;;;;;;4998088;28;1037;-88
2022/11/27 04:48:01;;;;;;;;;;;5.00;99.90;;;;;;4998647;28;1524;-88
2022/11/27 04:50:29;;;;;;;;;;;5.00;99.90;;;;;;4998960;28;1723;-90
2022/11/27 04:52:58;;;;;;;;;;;5.30;99.90;;;;;;4998802;28;1508;-91
2022/11/27 04:55:26;;;;;;;;;;;5.00;99.90;;;;;;4996971;28;1767;-89
2022/11/27 04:57:55;;;;;;;;;;;4.90;99.90;;;;;;5001565;28;1548;-87
2022/11/27 05:00:23;;;;;;;;;;;4.90;99.90;;;;;;5003090;28;1883;-88
2022/11/27 05:02:50;;;;;;;;;;;5.00;99.90;;;;;;5004006;28;975;-89
2022/11/27 05:05:18;;;;;;;;;;;5.00;99.90;;;;;;5004747;28;1432;-87
2022/11/27 05:07:46;;;;;;;;;;;5.00;99.90;;;;;;5018616;28;1206;-90
2022/11/27 05:10:14;;;;;;;;;;;5.00;99.90;;;;;;5004941;28;966;-88
2022/11/27 05:12:41;;;;;;;;;;;5.00;99.90;;;;;;5001058;28;1525;-88
2022/11/27 05:15:10;;;;;;;;;;;5.30;99.90;;;;;;5000865;28;1128;-88
2022/11/27 05:17:38;;;;;;;;;;;5.10;99.90;;;;;;4999918;28;1426;-86
2022/11/27 05:20:06;;;;;;;;;;;5.20;99.90;;;;;;5000599;28;1894;-87
2022/11/27 05:22:34;;;;;;;;;;;5.10;99.90;;;;;;5000808;28;1597;-88
2022/11/27 05:25:02;;;;;;;;;;;5.00;99.90;;;;;;4999634;28;986;-88
2022/11/27 05:27:29;;;;;;;;;;;5.00;99.90;;;;;;4997612;28;1576;-89
2022/11/27 05:29:57;;;;;;;;;;;5.30;99.90;;;;;;5001332;28;993;-89
2022/11/27 05:32:26;;;;;;;;;;;5.10;99.90;;;;;;5000055;28;1593;-86
2022/11/27 05:34:54;;;;;;;;;;;5.20;99.90;;;;;;4997539;28;1057;-88
2022/11/27 05:37:21;;;;;;;;;;;5.10;99.90;;;;;;4997934;28;1517;-89
2022/11/27 05:39:49;;;;;;;;;;;5.10;99.90;;;;;;5000157;28;1898;-88
2022/11/27 05:42:17;;;;;;;;;;;5.10;99.90;;;;;;5001191;28;1687;-88
2022/11/27 05:44:44;;;;;;;;;;;5.00;99.90;;;;;;5002683;28;1049;-87
2022/11/27 05:47:12;;;;;;;;;;;5.00;99.90;;;;;;5002400;28;1560;-89
2022/11/27 05:49:41;;;;;;;;;;;5.10;99.90;;;;;;5001788;28;1573;-88
2022/11/27 05:52:09;;;;;;;;;;;5.10;99.90;;;;;;5003074;28;1034;-89
2022/11/27 05:54:36;;;;;;;;;;;5.10;99.90;;;;;;5003829;28;1660;-90
2022/11/27 05:57:04;;;;;;;;;;;5.10;99.90;;;;;;5006292;28;1033;-90
2022/11/27 05:59:32;;;;;;;;;;;5.00;99.90;;;;;;5009277;28;1458;-89
2022/11/27 06:02:00;;;;;;;;;;;5.10;99.90;;;;;;5008249;28;1968;-89
2022/11/27 06:04:27;;;;;;;;;;;5.00;99.90;;;;;;5007422;28;1051;-88
2022/11/27 06:06:56;;;;;;;;;;;5.00;99.90;;;;;;5007079;28;1040;-87
2022/11/27 06:09:24;;;;;;;;;;;4.90;99.90;;;;;;5007056;28;1348;-89
2022/11/27 06:11:52;;;;;;;;;;;4.90;99.90;;;;;;5017582;28;1268;-88
2022/11/27 06:14:19;;;;;;;;;;;4.80;99.90;;;;;;5007658;28;1116;-90
2022/11/27 06:16:47;;;;;;;;;;;4.80;99.90;;;;;;5000649;28;1706;-90
2022/11/27 06:19:15;;;;;;;;;;;4.70;99.90;;;;;;5004892;28;1206;-87
2022/11/27 06:21:45;;;;;;;;;;;4.70;99.90;;;;;;5005797;28;1989;-88
2022/11/27 06:24:14;;;;;;;;;;;4.60;99.90;;;;;;5004652;28;1727;-88
2022/11/27 06:26:42;;;;;;;;;;;4.50;99.90;;;;;;5004064;28;1678;-87
2022/11/27 06:29:09;;;;;;;;;;;4.50;99.90;;;;;;5003908;28;1505;-88
2022/11/27 06:31:37;;;;;;;;;;;4.60;99.90;;;;;;5003714;28;1625;-88
2022/11/27 06:34:06;;;;;;;;;;;4.50;99.90;;;;;;5002728;28;1087;-88
2022/11/27 06:36:35;;;;;;;;;;;4.40;99.90;;;;;;5001849;28;1528;-87
2022/11/27 06:39:03;;;;;;;;;;;4.30;99.90;;;;;;5002260;28;1325;-86
2022/11/27 06:41:33;;;;;;;;;;;4.20;99.90;;;;;;5002198;28;1915;-86
2022/11/27 06:44:01;;;;;;;;;;;4.20;99.90;;;;;;5002968;28;1066;-85
2022/11/27 06:46:29;;;;;;;;;;;4.10;99.90;;;;;;5004601;28;1594;-87
2022/11/27 06:48:58;;;;;;;;;;;4.20;99.90;;;;;;5003875;28;1244;-87
2022/11/27 06:51:26;;;;;;;;;;;4.30;99.90;;;;;;5004458;28;1025;-89
2022/11/27 06:53:54;;;;;;;;;;;4.00;99.90;;;;;;5003445;28;1018;-87
2022/11/27 06:56:22;;;;;;;;;;;4.00;99.90;;;;;;5003973;28;1037;-87
2022/11/27 06:58:52;;;;;;;;;;;4.00;99.90;;;;;;5003381;28;1280;-87
2022/11/27 07:01:20;;;;;;;;;;;4.00;99.90;;;;;;5003603;28;1907;-88
2022/11/27 07:03:48;;;;;;;;;;;4.00;99.90;;;;;;5004217;28;966;-86
2022/11/27 07:06:18;;;;;;;;;;;3.90;99.90;;;;;;5004306;28;1033;-85
2022/11/27 07:08:46;;;;;;;;;;;3.90;99.90;;;;;;5003637;28;1375;-87
2022/11/27 07:11:15;;;;;;;;;;;3.90;99.90;;;;;;5004431;28;1407;-87
2022/11/27 07:13:43;;;;;;;;;;;3.90;99.90;;;;;;5017221;28;1029;-88
2022/11/27 07:16:12;;;;;;;;;;;3.60;99.90;;;;;;5018034;28;1699;-86
2022/11/27 07:18:41;;;;;;;;;;;4.00;99.90;;;;;;5011105;28;1368;-87
2022/11/27 07:21:09;;;;;;;;;;;3.90;99.90;;;;;;5005060;28;1950;-88
2022/11/27 07:23:37;;;;;;;;;;;3.90;99.90;;;;;;5011920;28;1674;-89
2022/11/27 07:26:05;;;;;;;;;;;3.90;99.90;;;;;;5022545;28;1690;-86
2022/11/27 07:28:33;;;;;;;;;;;3.90;99.90;;;;;;5020430;28;1553;-88
2022/11/27 07:31:01;;;;;;;;;;;3.90;99.90;;;;;;5008916;28;1026;-89
2022/11/27 07:33:31;;;;;;;;;;;4.00;99.90;;;;;;5024108;28;1569;-88
2022/11/27 07:35:59;;;;;;;;;;;3.90;99.90;;;;;;5017935;28;1584;-89
2022/11/27 07:38:27;;;;;;;;;;;3.90;99.90;;;;;;5016371;28;1272;-88
2022/11/27 07:40:55;;;;;;;;;;;3.80;99.90;;;;;;5003274;28;1989;-88
2022/11/27 07:43:24;;;;;;;;;;;3.90;99.90;;;;;;5003230;28;1697;-88
2022/11/27 07:45:51;;;;;;;;;;;3.90;99.90;;;;;;5003459;28;1018;-85
2022/11/27 07:48:19;;;;;;;;;;;4.10;99.90;;;;;;5012594;28;1698;-87
2022/11/27 07:50:48;;;;;;;;;;;3.80;99.90;;;;;;5013462;28;1462;-86
2022/11/27 07:53:16;;;;;;;;;;;3.80;99.90;;;;;;5016341;28;1100;-87
2022/11/27 07:55:44;;;;;;;;;;;4.00;99.90;;;;;;5005605;28;1116;-86
2022/11/27 07:58:12;;;;;;;;;;;3.70;99.90;;;;;;5010083;28;1538;-88
2022/11/27 08:00:39;;;;;;;;;;;3.80;99.90;;;;;;5013994;28;1462;-88
2022/11/27 08:03:07;;;;;;;;;;;3.70;99.90;;;;;;5009263;28;1930;-90
2022/11/27 08:05:35;;;;;;;;;;;3.90;99.90;;;;;;5002788;28;1588;-87
2022/11/27 08:08:05;;;;;;;;;;;3.90;99.90;;;;;;5001062;28;1359;-89
2022/11/27 08:10:34;;;;;;;;;;;4.00;99.90;;;;;;5009852;28;1529;-86
2022/11/27 08:13:02;;;;;;;;;;;3.90;99.90;;;;;;5001805;28;1638;-89
2022/11/27 08:15:30;;;;;;;;;;;4.00;99.90;;;;;;5001861;28;1786;-89
2022/11/27 08:17:58;;;;;;;;;;;4.10;99.90;;;;;;5001747;28;1287;-87
2022/11/27 08:20:25;;;;;;;;;;;4.00;99.90;;;;;;5013063;28;1082;-88
2022/11/27 08:22:53;;;;;;;;;;;4.10;99.90;;;;;;5008151;28;2010;-89
2022/11/27 08:25:31;;;;;;;;;;;4.10;99.90;;;;;;5011386;28;2439;-88
2022/11/27 08:27:59;;;;;;;;;;;4.20;99.90;;;;;;5002116;28;1296;-88
2022/11/27 08:30:27;;;;;;;;;;;4.40;99.90;;;;;;4999504;28;1613;-89
2022/11/27 08:32:54;;;;;;;;;;;4.50;99.90;;;;;;5001135;28;1100;-90
2022/11/27 08:35:22;;;;;;;;;;;4.70;99.90;;;;;;4999813;28;1576;-90
2022/11/27 08:37:50;;;;;;;;;;;4.90;99.90;;;;;;5015515;28;1310;-89
2022/11/27 08:40:18;;;;;;;;;;;4.70;99.90;;;;;;5012574;28;1537;-91
2022/11/27 08:42:47;;;;;;;;;;;4.80;99.90;;;;;;5026844;28;1993;-89
2022/11/27 08:45:15;;;;;;;;;;;4.90;99.90;;;;;;5025429;28;1097;-90
2022/11/27 08:47:44;;;;;;;;;;;4.90;99.90;;;;;;5022203;28;1358;-90
2022/11/27 08:50:12;;;;;;;;;;;4.90;99.90;;;;;;5027951;28;1718;-90
2022/11/27 08:52:40;;;;;;;;;;;4.90;99.90;;;;;;5030982;28;2450;-89
2022/11/27 08:55:08;;;;;;;;;;;5.00;99.90;;;;;;5036670;28;1044;-90
2022/11/27 08:57:36;;;;;;;;;;;5.00;99.90;;;;;;5037409;28;1229;-90
2022/11/27 09:00:06;;;;;;;;;;;5.00;99.90;;;;;;5027771;28;1528;-90
2022/11/27 09:02:34;;;;;;;;;;;5.10;99.90;;;;;;5022260;28;1902;-89
2022/11/27 09:05:06;;;;;;;;;;;5.10;99.90;;;;;;5022486;28;993;-91
2022/11/27 09:07:33;;;;;;;;;;;5.10;99.90;;;;;;5019424;28;1367;-90
2022/11/27 09:10:01;;;;;;;;;;;5.00;99.90;;;;;;5003552;28;1418;-89
2022/11/27 09:12:29;;;;;;;;;;;5.10;99.90;;;;;;5004950;28;1616;-89
2022/11/27 09:14:57;;;;;;;;;;;5.10;99.90;;;;;;5016335;28;2372;-89
2022/11/27 09:17:31;;;;;;;;;;;5.20;99.90;;;;;;5004404;28;1656;-90
2022/11/27 09:19:58;;;;;;;;;;;5.50;99.90;;;;;;5004389;28;1548;-88
2022/11/27 09:22:28;;;;;;;;;;;5.30;99.90;;;;;;5006669;28;1987;-89
2022/11/27 09:25:03;;;;;;;;;;;5.30;99.90;;;;;;5012936;28;1415;-87
2022/11/27 09:27:31;;;;;;;;;;;5.40;99.90;;;;;;5011907;28;1307;-88
2022/11/27 09:29:59;;;;;;;;;;;5.40;99.90;;;;;;5002785;28;1629;-88
2022/11/27 09:32:27;;;;;;;;;;;5.40;99.90;;;;;;5013522;28;1540;-89
2022/11/27 09:34:56;;;;;;;;;;;5.50;99.90;;;;;;5010721;28;1161;-89
2022/11/27 09:37:24;;;;;;;;;;;5.40;99.90;;;;;;5016264;28;1853;-88
2022/11/27 09:39:52;;;;;;;;;;;5.40;99.90;;;;;;5022610;28;1415;-88
2022/11/27 09:42:28;;;;;;;;;;;5.40;99.90;;;;;;5018598;28;1973;-88
2022/11/27 09:44:58;;;;;;;;;;;5.30;99.90;;;;;;5007175;28;942;-88
2022/11/27 09:47:30;;;;;;;;;;;5.30;99.90;;;;;;5001121;28;1625;-86
2022/11/27 09:50:01;;;;;;;;;;;5.20;99.90;;;;;;5006584;28;2499;-87
2022/11/27 09:52:34;;;;;;;;;;;5.20;99.90;;;;;;5010829;28;1177;-89
2022/11/27 09:55:05;;;;;;;;;;;5.30;99.90;;;;;;5004244;28;1049;-89
2022/11/27 09:57:36;;;;;;;;;;;5.40;99.90;;;;;;4999967;28;1366;-87
2022/11/27 10:00:13;;;;;;;;;;;5.40;99.90;;;;;;5001858;28;1087;-89
2022/11/27 10:02:41;;;;;;;;;;;5.60;99.90;;;;;;5004733;28;1965;-88
2022/11/27 10:05:17;;;;;;;;;;;5.70;99.90;;;;;;4999401;28;1264;-87
2022/11/27 10:07:51;;;;;;;;;;;5.80;99.90;;;;;;5000054;28;1411;-87
2022/11/27 10:10:29;;;;;;;;;;;5.80;99.90;;;;;;5002890;28;970;-86
2022/11/27 10:13:03;;;;;;;;;;;5.90;99.90;;;;;;5006682;28;1261;-88
2022/11/27 10:15:34;;;;;;;;;;;6.00;99.90;;;;;;5017091;28;1516;-89
2022/11/27 10:18:05;;;;;;;;;;;5.90;99.90;;;;;;5016791;28;1583;-87
2022/11/27 10:20:38;;;;;;;;;;;6.00;99.90;;;;;;5022376;28;1548;-86
2022/11/27 10:23:10;;;;;;;;;;;5.90;99.90;;;;;;5014490;28;1910;-87
2022/11/27 10:25:50;;;;;;;;;;;6.00;99.90;;;;;;5005625;28;1034;-87
2022/11/27 10:28:23;;;;;;;;;;;5.90;99.90;;;;;;5007933;28;1287;-87
2022/11/27 10:30:55;;;;;;;;;;;6.00;99.90;;;;;;5035008;28;1088;-85
2022/11/27 10:33:25;;;;;;;;;;;5.90;99.70;;;;;;5028516;28;1414;-86
2022/11/27 10:35:54;;;;;;;;;;;5.80;99.90;;;;;;5011458;28;1715;-86
2022/11/27 10:38:23;;;;;;;;;;;5.80;99.90;;;;;;5013193;28;1470;-87
2022/11/27 10:40:54;;;;;;;;;;;5.90;99.90;;;;;;5023875;28;1610;-87
2022/11/27 10:43:22;;;;;;;;;;;5.90;99.90;;;;;;5017607;28;1993;-88
2022/11/27 10:45:52;;;;;;;;;;;6.00;99.80;;;;;;5006169;28;1280;-87
2022/11/27 10:48:21;;;;;;;;;;;6.20;99.90;;;;;;5022717;28;2673;-89
2022/11/27 10:50:49;;;;;;;;;;;6.20;99.90;;;;;;5021817;28;1572;-88
2022/11/27 10:53:24;;;;;;;;;;;6.20;99.80;;;;;;5023603;28;1521;-88
2022/11/27 10:55:58;;;;;;;;;;;6.50;99.90;;;;;;5021972;28;1477;-89
2022/11/27 10:58:32;;;;;;;;;;;6.40;99.60;;;;;;5022238;28;1336;-87
2022/11/27 11:01:03;;;;;;;;;;;6.40;99.60;;;;;;5040327;28;1387;-88
2022/11/27 11:03:31;;;;;;;;;;;6.50;99.40;;;;;;5018798;28;1910;-90
2022/11/27 11:06:04;;;;;;;;;;;6.60;99.00;;;;;;5005781;28;1120;-88
2022/11/27 11:09:00;;;;;;;;;;;6.90;99.00;;;;;;5004588;28;1585;-90
2022/11/27 11:11:28;;;;;;;;;;;6.60;99.00;;;;;;5005132;28;1581;-88
2022/11/27 11:13:58;;;;;;;;;;;6.60;98.80;;;;;;5004352;28;1585;-89
2022/11/27 11:16:29;;;;;;;;;;;6.60;99.30;;;;;;5004106;28;1529;-88
2022/11/27 11:19:01;;;;;;;;;;;6.60;99.50;;;;;;5004082;28;1378;-87
2022/11/27 11:21:33;;;;;;;;;;;6.70;98.60;;;;;;5006729;28;1065;-90
2022/11/27 11:24:06;;;;;;;;;;;6.80;98.90;;;;;;5012669;28;1875;-88
2022/11/27 11:26:36;;;;;;;;;;;7.10;98.80;;;;;;5005050;28;1587;-87
2022/11/27 11:29:06;;;;;;;;;;;6.80;98.40;;;;;;5006071;28;1535;-88
2022/11/27 11:31:36;;;;;;;;;;;6.70;98.80;;;;;;5015962;28;1514;-88
2022/11/27 11:34:06;;;;;;;;;;;6.80;98.60;;;;;;5026818;28;1842;-90
2022/11/27 11:36:35;;;;;;;;;;;6.90;98.60;;;;;;5030268;28;1626;-87
2022/11/27 11:39:04;;;;;;;;;;;6.90;98.20;;;;;;5029696;28;1581;-89
2022/11/27 11:41:38;;;;;;;;;;;7.10;98.30;;;;;;5025502;28;1360;-87
2022/11/27 11:44:06;;;;;;;;;;;6.90;98.90;;;;;;5023512;28;1879;-88
2022/11/27 11:46:37;;;;;;;;;;;6.90;98.00;;;;;;5017761;28;1627;-89
2022/11/27 11:49:07;;;;;;;;;;;7.00;98.70;;;;;;5023247;28;1669;-90
2022/11/27 11:51:50;;;;;;;;;;;7.00;98.20;;;;;;5019008;28;1381;-88
2022/11/27 11:54:24;;;;;;;;;;;7.00;98.40;;;;;;5018471;28;1421;-87
2022/11/27 11:56:52;;;;;;;;;;;7.00;98.10;;;;;;5023085;28;1124;-87
2022/11/27 11:59:23;;;;;;;;;;;7.00;98.00;;;;;;5024475;28;1478;-88
2022/11/27 12:02:00;;;;;;;;;;;7.00;98.10;;;;;;5022172;28;1806;-89
2022/11/27 12:04:43;;;;;;;;;;;7.10;98.00;;;;;;5019042;28;1891;-89
2022/11/27 12:07:16;;;;;;;;;;;7.10;98.20;;;;;;5022108;28;2213;-87
2022/11/27 12:09:52;;;;;;;;;;;7.00;98.20;;;;;;5002136;28;1332;-88
2022/11/27 12:12:28;;;;;;;;;;;7.00;98.40;;;;;;5000877;28;1661;-88
2022/11/27 12:14:59;;;;;;;;;;;7.10;98.10;;;;;;5011336;28;1671;-88
2022/11/27 12:17:33;;;;;;;;;;;7.10;98.00;;;;;;5021329;28;970;-89
2022/11/27 12:20:05;;;;;;;;;;;7.10;98.00;;;;;;5022208;28;1009;-89
2022/11/27 12:22:44;;;;;;;;;;;7.20;97.70;;;;;;5024248;28;1589;-87
2022/11/27 12:25:22;;;;;;;;;;;7.10;97.40;;;;;;5002784;28;1895;-87
2022/11/27 12:27:57;;;;;;;;;;;7.20;97.70;;;;;;5011061;28;1351;-87
2022/11/27 12:30:29;;;;;;;;;;;7.20;97.70;;;;;;5019395;28;1037;-89
2022/11/27 12:33:06;;;;;;;;;;;7.10;97.70;;;;;;5019593;28;1098;-87
2022/11/27 12:35:41;;;;;;;;;;;7.10;97.80;;;;;;5005287;28;1662;-86
2022/11/27 12:38:15;;;;;;;;;;;7.10;97.70;;;;;;5020675;28;1304;-89
2022/11/27 12:40:50;;;;;;;;;;;7.10;97.80;;;;;;5012628;28;1592;-86
2022/11/27 12:43:23;;;;;;;;;;;7.10;97.90;;;;;;5036918;28;1895;-90
2022/11/27 12:45:53;;;;;;;;;;;7.10;97.70;;;;;;5024782;28;985;-86
2022/11/27 12:48:24;;;;;;;;;;;7.10;97.20;;;;;;5023679;28;1718;-88
2022/11/27 12:50:54;;;;;;;;;;;7.10;97.20;;;;;;5016702;28;1058;-84
2022/11/27 12:53:29;;;;;;;;;;;7.20;97.70;;;;;;5011786;28;1704;-87
2022/11/27 12:56:03;;;;;;;;;;;7.20;97.90;;;;;;5009419;28;1670;-87
2022/11/27 12:58:35;;;;;;;;;;;7.10;97.40;;;;;;5008288;28;1610;-87
2022/11/27 13:01:07;;;;;;;;;;;7.20;97.40;;;;;;5007305;28;1703;-89
2022/11/27 13:03:41;;;;;;;;;;;7.20;97.30;;;;;;5008080;28;1903;-85
2022/11/27 13:06:16;;;;;;;;;;;7.10;97.70;;;;;;5006952;28;1674;-89
2022/11/27 13:08:46;;;;;;;;;;;7.20;97.70;;;;;;5007534;28;1703;-88
2022/11/27 13:11:25;;;;;;;;;;;7.20;97.40;;;;;;5004958;28;1602;-85
2022/11/27 13:13:54;;;;;;;;;;;7.10;97.70;;;;;;5003241;28;1006;-85
2022/11/27 13:16:26;;;;;;;;;;;7.10;98.10;;;;;;5011032;28;998;-87
2022/11/27 13:18:56;;;;;;;;;;;7.10;98.00;;;;;;5018501;28;1670;-89
2022/11/27 13:21:25;;;;;;;;;;;7.00;98.40;;;;;;4999945;28;977;-90
2022/11/27 13:23:53;;;;;;;;;;;7.00;98.20;;;;;;5006684;28;1973;-88
2022/11/27 13:26:27;;;;;;;;;;;7.10;98.10;;;;;;5017033;28;1072;-89
2022/11/27 13:28:56;;;;;;;;;;;7.30;98.30;;;;;;5009984;28;1682;-90
2022/11/27 13:31:26;;;;;;;;;;;7.40;98.20;;;;;;5010927;28;1042;-88
2022/11/27 13:33:59;;;;;;;;;;;7.10;97.70;;;;;;5011537;28;1402;-89
2022/11/27 13:36:34;;;;;;;;;;;7.10;97.90;;;;;;5022507;28;1391;-89
2022/11/27 13:41:47;;;;;;;;;;;7.10;97.80;;;;;;4983734;28;1695;-89
2022/11/27 13:44:24;;;;;;;;;;;7.10;98.00;;;;;;4983875;28;1985;-87
2022/11/27 13:46:54;;;;;;;;;;;7.20;98.20;;;;;;5016661;28;1589;-89
2022/11/27 13:49:26;;;;;;;;;;;7.20;97.70;;;;;;5007701;28;1624;-89
2022/11/27 13:52:03;;;;;;;;;;;7.40;97.60;;;;;;4999821;28;1708;-87
2022/11/27 13:54:34;;;;;;;;;;;7.20;97.90;;;;;;5001233;28;1501;-91
2022/11/27 13:57:20;;;;;;;;;;;7.20;97.60;;;;;;5016217;28;1279;-89
2022/11/27 13:59:56;;;;;;;;;;;7.10;97.60;;;;;;5017193;28;1800;-87
2022/11/27 14:02:24;;;;;;;;;;;7.30;97.80;;;;;;5024421;28;1739;-86
2022/11/27 14:04:52;;;;;;;;;;;7.30;97.60;;;;;;5020063;28;2001;-86
2022/11/27 14:07:23;;;;;;;;;;;7.20;97.60;;;;;;5004741;28;1557;-87
2022/11/27 14:09:55;;;;;;;;;;;7.20;97.70;;;;;;5004897;28;1363;-86
2022/11/27 14:12:26;;;;;;;;;;;7.20;97.70;;;;;;5004336;28;1724;-87
2022/11/27 14:15:02;;;;;;;;;;;7.10;97.50;;;;;;5004848;28;1053;-88
2022/11/27 14:17:34;;;;;;;;;;;7.20;97.80;;;;;;5004528;28;1585;-87
2022/11/27 14:20:05;;;;;;;;;;;7.10;98.00;;;;;;5016353;28;1254;-87
2022/11/27 14:22:34;;;;;;;;;;;7.10;98.00;;;;;;5023014;28;1528;-87
2022/11/27 14:25:24;;;;;;;;;;;7.10;98.10;;;;;;5023523;28;1995;-86
2022/11/27 14:27:57;;;;;;;;;;;7.10;97.90;;;;;;5025224;28;1666;-86
2022/11/27 14:30:29;;;;;;;;;;;7.40;97.70;;;;;;5010117;28;1328;-87
2022/11/27 14:32:59;;;;;;;;;;;7.10;97.80;;;;;;5019440;28;1652;-86
2022/11/27 14:35:28;;;;;;;;;;;7.10;97.60;;;;;;5012030;28;1525;-88
2022/11/27 14:38:07;;;;;;;;;;;7.20;97.70;;;;;;5021034;28;1269;-86
2022/11/27 14:40:35;;;;;;;;;;;7.10;97.60;;;;;;5005302;28;1693;-86
2022/11/27 14:43:14;;;;;;;;;;;7.20;97.50;;;;;;5016570;28;1092;-87
2022/11/27 14:45:44;;;;;;;;;;;7.20;97.60;;;;;;5003671;28;1895;-85
2022/11/27 14:48:20;;;;;;;;;;;7.20;97.70;;;;;;5006513;28;1639;-87
2022/11/27 14:50:48;;;;;;;;;;;7.20;97.80;;;;;;5018064;28;1081;-88
2022/11/27 14:53:18;;;;;;;;;;;7.10;97.60;;;;;;5013329;28;1728;-86
2022/11/27 14:55:48;;;;;;;;;;;7.20;97.60;;;;;;5005421;28;1054;-87
2022/11/27 14:58:20;;;;;;;;;;;7.10;97.80;;;;;;5004509;28;1312;-88
2022/11/27 15:00:52;;;;;;;;;;;7.10;97.80;;;;;;5002783;28;1003;-86
2022/11/27 15:03:20;;;;;;;;;;;7.10;97.40;;;;;;5003360;28;1569;-87
2022/11/27 15:05:52;;;;;;;;;;;7.00;97.40;;;;;;5009686;28;2000;-87
2022/11/27 15:08:20;;;;;;;;;;;7.00;97.60;;;;;;5008648;28;1663;-87
2022/11/27 15:10:52;;;;;;;;;;;7.00;97.30;;;;;;5011878;28;1314;-87
2022/11/27 15:13:23;;;;;;;;;;;7.10;97.60;;;;;;5004236;28;1018;-87
2022/11/27 15:15:56;;;;;;;;;;;7.00;97.80;;;;;;5003990;28;960;-86
2022/11/27 15:18:24;;;;;;;;;;;6.90;97.50;;;;;;5016805;28;1348;-86
2022/11/27 15:20:54;;;;;;;;;;;7.00;97.70;;;;;;5016622;28;966;-85
2022/11/27 15:23:23;;;;;;;;;;;7.00;97.70;;;;;;5003877;28;1652;-86